sensor_id;sensor_type;location;lat;lon;timestamp;P1;durP1;ratioP1;P2;durP2;ratioP2
21233;SDS011;10774;42.178;26.578;2023-03-01T00:01:00;7.47;;;4.78;;
21233;SDS011;10774;42.178;26.578;2023-03-01T00:03:26;5.22;;;3.40;;
21233;SDS011;10774;42.178;26.578;2023-03-01T00:05:52;6.95;;;4.85;;
21233;SDS011;10774;42.178;26.578;2023-03-01T00:08:17;4.35;;;3.30;;
21233;SDS011;10774;42.178;26.578;2023-03-01T00:10:43;4.18;;;2.97;;
21233;SDS011;10774;42.178;26.578;2023-03-01T00:13:08;3.55;;;2.90;;
21233;SDS011;10774;42.178;26.578;2023-03-01T00:15:37;5.20;;;4.00;;
21233;SDS011;10774;42.178;26.578;2023-03-01T00:18:03;3.85;;;3.13;;
21233;SDS011;10774;42.178;26.578;2023-03-01T00:20:29;3.47;;;2.92;;
21233;SDS011;10774;42.178;26.578;2023-03-01T00:22:54;3.30;;;2.80;;
21233;SDS011;10774;42.178;26.578;2023-03-01T00:25:19;4.25;;;3.13;;
21233;SDS011;10774;42.178;26.578;2023-03-01T00:27:46;4.15;;;3.20;;
21233;SDS011;10774;42.178;26.578;2023-03-01T00:30:11;5.50;;;3.67;;
21233;SDS011;10774;42.178;26.578;2023-03-01T00:32:37;6.40;;;3.80;;
21233;SDS011;10774;42.178;26.578;2023-03-01T00:35:03;6.68;;;4.38;;
21233;SDS011;10774;42.178;26.578;2023-03-01T00:37:28;6.97;;;4.35;;
21233;SDS011;10774;42.178;26.578;2023-03-01T00:39:54;7.38;;;5.05;;
21233;SDS011;10774;42.178;26.578;2023-03-01T00:42:19;10.05;;;6.65;;
21233;SDS011;10774;42.178;26.578;2023-03-01T00:44:44;14.13;;;8.32;;
21233;SDS011;10774;42.178;26.578;2023-03-01T00:47:10;5.82;;;4.25;;
21233;SDS011;10774;42.178;26.578;2023-03-01T00:49:35;6.93;;;5.15;;
21233;SDS011;10774;42.178;26.578;2023-03-01T00:52:01;15.27;;;9.30;;
21233;SDS011;10774;42.178;26.578;2023-03-01T00:54:26;17.73;;;10.90;;
21233;SDS011;10774;42.178;26.578;2023-03-01T00:56:51;11.27;;;7.45;;
21233;SDS011;10774;42.178;26.578;2023-03-01T00:59:17;11.13;;;7.97;;
21233;SDS011;10774;42.178;26.578;2023-03-01T01:01:42;13.23;;;8.93;;
21233;SDS011;10774;42.178;26.578;2023-03-01T01:04:09;9.63;;;7.05;;
21233;SDS011;10774;42.178;26.578;2023-03-01T01:06:38;4.85;;;4.15;;
21233;SDS011;10774;42.178;26.578;2023-03-01T01:09:07;5.72;;;4.18;;
21233;SDS011;10774;42.178;26.578;2023-03-01T01:11:34;8.38;;;4.45;;
21233;SDS011;10774;42.178;26.578;2023-03-01T01:14:03;6.13;;;4.10;;
21233;SDS011;10774;42.178;26.578;2023-03-01T01:16:28;5.68;;;4.30;;
21233;SDS011;10774;42.178;26.578;2023-03-01T01:18:55;7.22;;;5.63;;
21233;SDS011;10774;42.178;26.578;2023-03-01T01:21:22;7.05;;;5.10;;
21233;SDS011;10774;42.178;26.578;2023-03-01T01:23:49;5.82;;;4.50;;
21233;SDS011;10774;42.178;26.578;2023-03-01T01:26:17;6.65;;;5.00;;
21233;SDS011;10774;42.178;26.578;2023-03-01T01:28:47;7.18;;;5.05;;
21233;SDS011;10774;42.178;26.578;2023-03-01T01:31:13;6.40;;;4.88;;
21233;SDS011;10774;42.178;26.578;2023-03-01T01:33:39;5.63;;;4.90;;
21233;SDS011;10774;42.178;26.578;2023-03-01T01:36:05;7.68;;;6.18;;
21233;SDS011;10774;42.178;26.578;2023-03-01T01:38:31;8.45;;;6.28;;
21233;SDS011;10774;42.178;26.578;2023-03-01T01:40:57;7.60;;;5.38;;
21233;SDS011;10774;42.178;26.578;2023-03-01T01:43:27;6.47;;;5.50;;
21233;SDS011;10774;42.178;26.578;2023-03-01T01:45:55;6.22;;;5.00;;
21233;SDS011;10774;42.178;26.578;2023-03-01T01:48:25;5.05;;;4.43;;
21233;SDS011;10774;42.178;26.578;2023-03-01T01:51:09;6.78;;;4.88;;
21233;SDS011;10774;42.178;26.578;2023-03-01T01:53:39;6.53;;;4.53;;
21233;SDS011;10774;42.178;26.578;2023-03-01T01:56:05;6.90;;;5.03;;
21233;SDS011;10774;42.178;26.578;2023-03-01T01:58:33;6.38;;;4.85;;
21233;SDS011;10774;42.178;26.578;2023-03-01T02:01:00;9.30;;;5.82;;
21233;SDS011;10774;42.178;26.578;2023-03-01T02:03:27;6.72;;;5.32;;
21233;SDS011;10774;42.178;26.578;2023-03-01T02:08:30;5.88;;;4.40;;
21233;SDS011;10774;42.178;26.578;2023-03-01T02:10:58;6.57;;;4.95;;
21233;SDS011;10774;42.178;26.578;2023-03-01T02:13:29;6.28;;;5.35;;
21233;SDS011;10774;42.178;26.578;2023-03-01T02:15:56;6.45;;;4.78;;
21233;SDS011;10774;42.178;26.578;2023-03-01T02:18:22;5.70;;;4.78;;
21233;SDS011;10774;42.178;26.578;2023-03-01T02:23:33;6.45;;;4.47;;
21233;SDS011;10774;42.178;26.578;2023-03-01T02:28:46;5.57;;;4.18;;
21233;SDS011;10774;42.178;26.578;2023-03-01T02:31:14;5.32;;;4.40;;
21233;SDS011;10774;42.178;26.578;2023-03-01T02:34:00;5.03;;;4.30;;
21233;SDS011;10774;42.178;26.578;2023-03-01T02:36:30;5.45;;;4.18;;
21233;SDS011;10774;42.178;26.578;2023-03-01T02:39:00;4.90;;;4.03;;
21233;SDS011;10774;42.178;26.578;2023-03-01T02:41:28;5.53;;;4.32;;
21233;SDS011;10774;42.178;26.578;2023-03-01T02:43:57;6.93;;;4.40;;
21233;SDS011;10774;42.178;26.578;2023-03-01T02:46:24;7.68;;;5.30;;
21233;SDS011;10774;42.178;26.578;2023-03-01T02:48:51;5.97;;;4.03;;
21233;SDS011;10774;42.178;26.578;2023-03-01T02:56:32;9.97;;;7.30;;
21233;SDS011;10774;42.178;26.578;2023-03-01T02:58:58;6.18;;;5.13;;
21233;SDS011;10774;42.178;26.578;2023-03-01T03:01:25;6.38;;;4.90;;
21233;SDS011;10774;42.178;26.578;2023-03-01T03:04:01;6.40;;;4.93;;
21233;SDS011;10774;42.178;26.578;2023-03-01T03:06:27;7.47;;;5.72;;
21233;SDS011;10774;42.178;26.578;2023-03-01T03:08:52;6.80;;;4.75;;
21233;SDS011;10774;42.178;26.578;2023-03-01T03:11:18;6.65;;;4.80;;
21233;SDS011;10774;42.178;26.578;2023-03-01T03:13:43;8.85;;;6.32;;
21233;SDS011;10774;42.178;26.578;2023-03-01T03:16:13;7.20;;;5.85;;
21233;SDS011;10774;42.178;26.578;2023-03-01T03:18:38;8.65;;;5.28;;
21233;SDS011;10774;42.178;26.578;2023-03-01T03:21:07;7.55;;;5.72;;
21233;SDS011;10774;42.178;26.578;2023-03-01T03:23:35;7.55;;;5.38;;
21233;SDS011;10774;42.178;26.578;2023-03-01T03:26:01;8.07;;;6.15;;
21233;SDS011;10774;42.178;26.578;2023-03-01T03:28:29;5.85;;;5.07;;
21233;SDS011;10774;42.178;26.578;2023-03-01T03:30:55;15.05;;;9.82;;
21233;SDS011;10774;42.178;26.578;2023-03-01T03:33:21;22.35;;;15.50;;
21233;SDS011;10774;42.178;26.578;2023-03-01T03:35:48;7.97;;;6.78;;
21233;SDS011;10774;42.178;26.578;2023-03-01T03:38:15;6.90;;;5.55;;
21233;SDS011;10774;42.178;26.578;2023-03-01T03:40:44;9.88;;;8.57;;
21233;SDS011;10774;42.178;26.578;2023-03-01T03:43:13;19.17;;;13.48;;
21233;SDS011;10774;42.178;26.578;2023-03-01T03:48:22;22.05;;;16.67;;
21233;SDS011;10774;42.178;26.578;2023-03-01T03:50:50;31.73;;;21.42;;
21233;SDS011;10774;42.178;26.578;2023-03-01T03:53:21;8.65;;;7.40;;
21233;SDS011;10774;42.178;26.578;2023-03-01T03:55:47;4.80;;;4.30;;
21233;SDS011;10774;42.178;26.578;2023-03-01T03:58:17;5.63;;;4.50;;
21233;SDS011;10774;42.178;26.578;2023-03-01T04:00:44;6.55;;;5.25;;
21233;SDS011;10774;42.178;26.578;2023-03-01T04:03:13;9.90;;;7.63;;
21233;SDS011;10774;42.178;26.578;2023-03-01T04:05:39;4.72;;;4.15;;
21233;SDS011;10774;42.178;26.578;2023-03-01T04:08:05;4.95;;;4.30;;
21233;SDS011;10774;42.178;26.578;2023-03-01T04:10:35;6.53;;;5.65;;
21233;SDS011;10774;42.178;26.578;2023-03-01T04:13:02;5.40;;;4.20;;
21233;SDS011;10774;42.178;26.578;2023-03-01T04:15:28;4.57;;;3.10;;
21233;SDS011;10774;42.178;26.578;2023-03-01T04:17:55;4.65;;;3.08;;
21233;SDS011;10774;42.178;26.578;2023-03-01T04:20:22;5.60;;;3.70;;
21233;SDS011;10774;42.178;26.578;2023-03-01T04:22:49;12.13;;;7.50;;
21233;SDS011;10774;42.178;26.578;2023-03-01T04:28:01;6.97;;;5.72;;
21233;SDS011;10774;42.178;26.578;2023-03-01T04:30:26;20.75;;;14.40;;
21233;SDS011;10774;42.178;26.578;2023-03-01T04:32:51;19.30;;;14.10;;
21233;SDS011;10774;42.178;26.578;2023-03-01T04:35:17;13.82;;;11.52;;
21233;SDS011;10774;42.178;26.578;2023-03-01T04:37:42;11.23;;;10.13;;
21233;SDS011;10774;42.178;26.578;2023-03-01T04:40:09;6.38;;;5.78;;
21233;SDS011;10774;42.178;26.578;2023-03-01T04:42:41;7.70;;;6.22;;
21233;SDS011;10774;42.178;26.578;2023-03-01T04:45:07;6.28;;;5.55;;
21233;SDS011;10774;42.178;26.578;2023-03-01T04:47:38;6.07;;;4.63;;
21233;SDS011;10774;42.178;26.578;2023-03-01T04:50:05;6.43;;;5.13;;
21233;SDS011;10774;42.178;26.578;2023-03-01T04:52:31;6.07;;;5.40;;
21233;SDS011;10774;42.178;26.578;2023-03-01T04:54:56;9.02;;;7.55;;
21233;SDS011;10774;42.178;26.578;2023-03-01T04:57:22;10.68;;;7.13;;
21233;SDS011;10774;42.178;26.578;2023-03-01T04:59:47;9.40;;;7.40;;
21233;SDS011;10774;42.178;26.578;2023-03-01T05:02:12;9.55;;;7.15;;
21233;SDS011;10774;42.178;26.578;2023-03-01T05:04:38;9.07;;;6.57;;
21233;SDS011;10774;42.178;26.578;2023-03-01T05:07:03;8.52;;;5.78;;
21233;SDS011;10774;42.178;26.578;2023-03-01T05:09:29;6.15;;;5.15;;
21233;SDS011;10774;42.178;26.578;2023-03-01T05:11:54;7.38;;;6.25;;
21233;SDS011;10774;42.178;26.578;2023-03-01T05:14:19;12.93;;;10.10;;
21233;SDS011;10774;42.178;26.578;2023-03-01T05:16:45;11.10;;;7.80;;
21233;SDS011;10774;42.178;26.578;2023-03-01T05:19:10;9.63;;;7.90;;
21233;SDS011;10774;42.178;26.578;2023-03-01T05:21:40;12.38;;;8.80;;
21233;SDS011;10774;42.178;26.578;2023-03-01T05:24:26;16.77;;;12.65;;
21233;SDS011;10774;42.178;26.578;2023-03-01T05:26:52;6.50;;;4.78;;
21233;SDS011;10774;42.178;26.578;2023-03-01T05:29:18;10.48;;;7.93;;
21233;SDS011;10774;42.178;26.578;2023-03-01T05:31:50;22.75;;;17.45;;
21233;SDS011;10774;42.178;26.578;2023-03-01T05:34:26;37.55;;;25.63;;
21233;SDS011;10774;42.178;26.578;2023-03-01T05:36:53;22.00;;;14.07;;
21233;SDS011;10774;42.178;26.578;2023-03-01T05:39:20;15.25;;;10.57;;
21233;SDS011;10774;42.178;26.578;2023-03-01T05:41:47;17.92;;;12.43;;
21233;SDS011;10774;42.178;26.578;2023-03-01T05:44:16;14.55;;;9.77;;
21233;SDS011;10774;42.178;26.578;2023-03-01T05:46:42;5.88;;;5.07;;
21233;SDS011;10774;42.178;26.578;2023-03-01T05:49:07;8.68;;;6.70;;
21233;SDS011;10774;42.178;26.578;2023-03-01T05:51:33;11.52;;;8.10;;
21233;SDS011;10774;42.178;26.578;2023-03-01T05:53:59;7.45;;;5.35;;
21233;SDS011;10774;42.178;26.578;2023-03-01T05:56:24;8.70;;;6.70;;
21233;SDS011;10774;42.178;26.578;2023-03-01T05:58:49;13.82;;;8.80;;
21233;SDS011;10774;42.178;26.578;2023-03-01T06:01:15;10.40;;;7.90;;
21233;SDS011;10774;42.178;26.578;2023-03-01T06:03:41;9.63;;;7.38;;
21233;SDS011;10774;42.178;26.578;2023-03-01T06:06:06;10.55;;;8.30;;
21233;SDS011;10774;42.178;26.578;2023-03-01T06:08:32;10.77;;;8.90;;
21233;SDS011;10774;42.178;26.578;2023-03-01T06:10:57;11.07;;;9.23;;
21233;SDS011;10774;42.178;26.578;2023-03-01T06:13:23;10.48;;;9.38;;
21233;SDS011;10774;42.178;26.578;2023-03-01T06:15:49;14.45;;;10.15;;
21233;SDS011;10774;42.178;26.578;2023-03-01T06:18:14;8.27;;;5.88;;
21233;SDS011;10774;42.178;26.578;2023-03-01T06:20:40;11.27;;;8.88;;
21233;SDS011;10774;42.178;26.578;2023-03-01T06:23:05;11.00;;;8.10;;
21233;SDS011;10774;42.178;26.578;2023-03-01T06:25:31;12.05;;;9.35;;
21233;SDS011;10774;42.178;26.578;2023-03-01T06:27:57;12.55;;;10.85;;
21233;SDS011;10774;42.178;26.578;2023-03-01T06:30:23;14.32;;;11.00;;
21233;SDS011;10774;42.178;26.578;2023-03-01T06:32:49;11.38;;;9.05;;
21233;SDS011;10774;42.178;26.578;2023-03-01T06:35:15;14.43;;;11.02;;
21233;SDS011;10774;42.178;26.578;2023-03-01T06:37:43;12.25;;;9.10;;
21233;SDS011;10774;42.178;26.578;2023-03-01T06:40:09;12.27;;;9.40;;
21233;SDS011;10774;42.178;26.578;2023-03-01T06:42:37;18.33;;;13.52;;
21233;SDS011;10774;42.178;26.578;2023-03-01T06:45:03;36.97;;;21.67;;
21233;SDS011;10774;42.178;26.578;2023-03-01T06:47:31;66.80;;;34.58;;
21233;SDS011;10774;42.178;26.578;2023-03-01T06:49:58;50.45;;;27.85;;
21233;SDS011;10774;42.178;26.578;2023-03-01T06:52:24;26.58;;;16.73;;
21233;SDS011;10774;42.178;26.578;2023-03-01T06:54:49;18.27;;;12.68;;
21233;SDS011;10774;42.178;26.578;2023-03-01T06:57:15;20.38;;;9.93;;
21233;SDS011;10774;42.178;26.578;2023-03-01T06:59:41;10.10;;;7.63;;
21233;SDS011;10774;42.178;26.578;2023-03-01T07:02:06;9.30;;;7.53;;
21233;SDS011;10774;42.178;26.578;2023-03-01T07:04:37;18.65;;;11.52;;
21233;SDS011;10774;42.178;26.578;2023-03-01T07:07:03;12.38;;;9.40;;
21233;SDS011;10774;42.178;26.578;2023-03-01T07:09:28;18.10;;;12.98;;
21233;SDS011;10774;42.178;26.578;2023-03-01T07:11:53;17.25;;;12.07;;
21233;SDS011;10774;42.178;26.578;2023-03-01T07:14:19;11.27;;;9.25;;
21233;SDS011;10774;42.178;26.578;2023-03-01T07:16:45;17.33;;;12.65;;
21233;SDS011;10774;42.178;26.578;2023-03-01T07:19:10;15.50;;;11.27;;
21233;SDS011;10774;42.178;26.578;2023-03-01T07:21:36;20.95;;;15.38;;
21233;SDS011;10774;42.178;26.578;2023-03-01T07:24:04;30.52;;;19.48;;
21233;SDS011;10774;42.178;26.578;2023-03-01T07:26:31;18.67;;;12.93;;
21233;SDS011;10774;42.178;26.578;2023-03-01T07:28:58;22.73;;;15.40;;
21233;SDS011;10774;42.178;26.578;2023-03-01T07:31:25;28.42;;;17.20;;
21233;SDS011;10774;42.178;26.578;2023-03-01T07:33:53;20.58;;;15.45;;
21233;SDS011;10774;42.178;26.578;2023-03-01T07:36:19;21.15;;;15.38;;
21233;SDS011;10774;42.178;26.578;2023-03-01T07:38:44;16.00;;;12.13;;
21233;SDS011;10774;42.178;26.578;2023-03-01T07:41:10;29.42;;;19.58;;
21233;SDS011;10774;42.178;26.578;2023-03-01T07:43:35;53.30;;;35.13;;
21233;SDS011;10774;42.178;26.578;2023-03-01T07:46:01;56.58;;;33.60;;
21233;SDS011;10774;42.178;26.578;2023-03-01T07:48:27;15.57;;;11.05;;
21233;SDS011;10774;42.178;26.578;2023-03-01T07:50:53;18.65;;;13.93;;
21233;SDS011;10774;42.178;26.578;2023-03-01T07:53:18;17.58;;;12.20;;
21233;SDS011;10774;42.178;26.578;2023-03-01T07:55:44;28.77;;;17.50;;
21233;SDS011;10774;42.178;26.578;2023-03-01T07:58:09;22.98;;;14.43;;
21233;SDS011;10774;42.178;26.578;2023-03-01T08:00:35;39.70;;;26.30;;
21233;SDS011;10774;42.178;26.578;2023-03-01T08:03:00;27.50;;;17.73;;
21233;SDS011;10774;42.178;26.578;2023-03-01T08:05:27;29.30;;;16.73;;
21233;SDS011;10774;42.178;26.578;2023-03-01T08:07:53;24.95;;;17.08;;
21233;SDS011;10774;42.178;26.578;2023-03-01T08:10:19;31.50;;;21.27;;
21233;SDS011;10774;42.178;26.578;2023-03-01T08:12:44;31.90;;;20.17;;
21233;SDS011;10774;42.178;26.578;2023-03-01T08:15:10;29.58;;;19.15;;
21233;SDS011;10774;42.178;26.578;2023-03-01T08:17:36;24.38;;;16.42;;
21233;SDS011;10774;42.178;26.578;2023-03-01T08:20:01;10.45;;;8.10;;
21233;SDS011;10774;42.178;26.578;2023-03-01T08:22:29;19.90;;;12.65;;
21233;SDS011;10774;42.178;26.578;2023-03-01T08:24:54;23.13;;;13.70;;
21233;SDS011;10774;42.178;26.578;2023-03-01T08:27:21;30.02;;;18.90;;
21233;SDS011;10774;42.178;26.578;2023-03-01T08:29:46;28.60;;;17.92;;
21233;SDS011;10774;42.178;26.578;2023-03-01T08:32:11;23.92;;;14.80;;
21233;SDS011;10774;42.178;26.578;2023-03-01T08:34:37;37.75;;;24.75;;
21233;SDS011;10774;42.178;26.578;2023-03-01T08:37:02;34.20;;;22.85;;
21233;SDS011;10774;42.178;26.578;2023-03-01T08:39:28;22.05;;;15.55;;
21233;SDS011;10774;42.178;26.578;2023-03-01T08:41:54;18.38;;;12.00;;
21233;SDS011;10774;42.178;26.578;2023-03-01T08:44:19;17.05;;;11.23;;
21233;SDS011;10774;42.178;26.578;2023-03-01T08:46:46;15.70;;;10.63;;
21233;SDS011;10774;42.178;26.578;2023-03-01T08:49:13;13.48;;;10.30;;
21233;SDS011;10774;42.178;26.578;2023-03-01T08:51:41;13.75;;;10.02;;
21233;SDS011;10774;42.178;26.578;2023-03-01T08:54:09;16.55;;;12.35;;
21233;SDS011;10774;42.178;26.578;2023-03-01T08:56:36;12.80;;;10.25;;
21233;SDS011;10774;42.178;26.578;2023-03-01T08:59:02;10.93;;;9.45;;
21233;SDS011;10774;42.178;26.578;2023-03-01T09:01:27;12.40;;;9.27;;
21233;SDS011;10774;42.178;26.578;2023-03-01T09:03:53;19.50;;;11.27;;
21233;SDS011;10774;42.178;26.578;2023-03-01T09:06:18;12.18;;;7.55;;
21233;SDS011;10774;42.178;26.578;2023-03-01T09:08:45;10.07;;;6.63;;
21233;SDS011;10774;42.178;26.578;2023-03-01T09:11:13;6.68;;;4.90;;
21233;SDS011;10774;42.178;26.578;2023-03-01T09:13:41;8.55;;;6.68;;
21233;SDS011;10774;42.178;26.578;2023-03-01T09:16:08;9.38;;;8.15;;
21233;SDS011;10774;42.178;26.578;2023-03-01T09:18:34;14.07;;;10.60;;
21233;SDS011;10774;42.178;26.578;2023-03-01T09:21:04;7.80;;;6.57;;
21233;SDS011;10774;42.178;26.578;2023-03-01T09:23:37;11.80;;;8.73;;
21233;SDS011;10774;42.178;26.578;2023-03-01T09:26:08;17.38;;;11.50;;
21233;SDS011;10774;42.178;26.578;2023-03-01T09:28:36;12.50;;;7.80;;
21233;SDS011;10774;42.178;26.578;2023-03-01T09:31:02;15.63;;;10.93;;
21233;SDS011;10774;42.178;26.578;2023-03-01T09:33:29;10.25;;;7.47;;
21233;SDS011;10774;42.178;26.578;2023-03-01T09:35:58;11.30;;;8.50;;
21233;SDS011;10774;42.178;26.578;2023-03-01T09:38:25;10.15;;;8.35;;
21233;SDS011;10774;42.178;26.578;2023-03-01T09:40:50;16.42;;;11.55;;
21233;SDS011;10774;42.178;26.578;2023-03-01T09:43:21;11.05;;;8.00;;
21233;SDS011;10774;42.178;26.578;2023-03-01T09:45:54;14.68;;;9.38;;
21233;SDS011;10774;42.178;26.578;2023-03-01T09:48:25;18.25;;;12.60;;
21233;SDS011;10774;42.178;26.578;2023-03-01T09:50:55;12.65;;;9.75;;
21233;SDS011;10774;42.178;26.578;2023-03-01T09:53:23;16.05;;;12.10;;
21233;SDS011;10774;42.178;26.578;2023-03-01T09:56:05;13.40;;;10.80;;
21233;SDS011;10774;42.178;26.578;2023-03-01T09:58:44;10.88;;;8.80;;
21233;SDS011;10774;42.178;26.578;2023-03-01T10:01:36;13.18;;;9.93;;
21233;SDS011;10774;42.178;26.578;2023-03-01T10:04:12;11.52;;;8.18;;
21233;SDS011;10774;42.178;26.578;2023-03-01T10:06:41;15.60;;;7.83;;
21233;SDS011;10774;42.178;26.578;2023-03-01T10:09:15;8.10;;;6.55;;
21233;SDS011;10774;42.178;26.578;2023-03-01T10:11:47;12.05;;;8.75;;
21233;SDS011;10774;42.178;26.578;2023-03-01T10:14:31;27.33;;;16.67;;
21233;SDS011;10774;42.178;26.578;2023-03-01T10:17:30;22.65;;;13.30;;
21233;SDS011;10774;42.178;26.578;2023-03-01T10:22:38;18.35;;;13.02;;
21233;SDS011;10774;42.178;26.578;2023-03-01T10:25:03;16.77;;;11.38;;
21233;SDS011;10774;42.178;26.578;2023-03-01T10:27:32;10.73;;;7.93;;
21233;SDS011;10774;42.178;26.578;2023-03-01T10:32:45;17.95;;;11.65;;
21233;SDS011;10774;42.178;26.578;2023-03-01T10:35:17;16.65;;;11.05;;
21233;SDS011;10774;42.178;26.578;2023-03-01T10:40:33;19.90;;;13.18;;
21233;SDS011;10774;42.178;26.578;2023-03-01T10:43:01;12.27;;;8.73;;
21233;SDS011;10774;42.178;26.578;2023-03-01T10:49:07;12.70;;;10.40;;
21233;SDS011;10774;42.178;26.578;2023-03-01T10:51:39;19.52;;;11.02;;
21233;SDS011;10774;42.178;26.578;2023-03-01T10:54:19;15.07;;;11.18;;
21233;SDS011;10774;42.178;26.578;2023-03-01T10:56:54;12.82;;;8.70;;
21233;SDS011;10774;42.178;26.578;2023-03-01T10:59:26;13.65;;;8.80;;
21233;SDS011;10774;42.178;26.578;2023-03-01T11:02:01;15.40;;;10.07;;
21233;SDS011;10774;42.178;26.578;2023-03-01T11:04:32;10.02;;;7.50;;
21233;SDS011;10774;42.178;26.578;2023-03-01T11:06:59;13.70;;;9.70;;
21233;SDS011;10774;42.178;26.578;2023-03-01T11:09:25;14.98;;;9.82;;
21233;SDS011;10774;42.178;26.578;2023-03-01T11:11:57;17.63;;;12.00;;
21233;SDS011;10774;42.178;26.578;2023-03-01T11:14:31;20.70;;;12.10;;
21233;SDS011;10774;42.178;26.578;2023-03-01T11:17:03;22.00;;;14.13;;
21233;SDS011;10774;42.178;26.578;2023-03-01T11:19:31;13.82;;;9.68;;
21233;SDS011;10774;42.178;26.578;2023-03-01T11:27:19;12.98;;;8.35;;
21233;SDS011;10774;42.178;26.578;2023-03-01T11:29:51;14.93;;;10.90;;
21233;SDS011;10774;42.178;26.578;2023-03-01T11:32:26;13.02;;;9.13;;
21233;SDS011;10774;42.178;26.578;2023-03-01T11:38:24;16.08;;;10.75;;
21233;SDS011;10774;42.178;26.578;2023-03-01T11:40:48;11.80;;;8.93;;
21233;SDS011;10774;42.178;26.578;2023-03-01T11:56:55;24.55;;;14.23;;
21233;SDS011;10774;42.178;26.578;2023-03-01T11:59:30;27.13;;;15.15;;
21233;SDS011;10774;42.178;26.578;2023-03-01T12:11:08;23.13;;;14.27;;
21233;SDS011;10774;42.178;26.578;2023-03-01T12:28:48;27.60;;;18.98;;
21233;SDS011;10774;42.178;26.578;2023-03-01T12:31:38;22.88;;;15.07;;
21233;SDS011;10774;42.178;26.578;2023-03-01T12:44:31;19.23;;;13.73;;
21233;SDS011;10774;42.178;26.578;2023-03-01T12:49:44;74.35;;;42.25;;
21233;SDS011;10774;42.178;26.578;2023-03-01T12:55:25;32.33;;;20.23;;
21233;SDS011;10774;42.178;26.578;2023-03-01T12:58:02;23.67;;;15.48;;
21233;SDS011;10774;42.178;26.578;2023-03-01T13:00:39;22.95;;;16.48;;
21233;SDS011;10774;42.178;26.578;2023-03-01T13:08:19;28.13;;;20.45;;
21233;SDS011;10774;42.178;26.578;2023-03-01T13:10:55;30.45;;;21.52;;
21233;SDS011;10774;42.178;26.578;2023-03-01T13:13:25;24.17;;;16.95;;
21233;SDS011;10774;42.178;26.578;2023-03-01T13:15:53;27.52;;;17.58;;
21233;SDS011;10774;42.178;26.578;2023-03-01T13:20:47;22.90;;;17.15;;
21233;SDS011;10774;42.178;26.578;2023-03-01T13:26:05;27.33;;;18.13;;
21233;SDS011;10774;42.178;26.578;2023-03-01T13:36:05;40.75;;;24.20;;
21233;SDS011;10774;42.178;26.578;2023-03-01T13:52:29;33.53;;;21.92;;
21233;SDS011;10774;42.178;26.578;2023-03-01T13:55:38;32.55;;;22.45;;
21233;SDS011;10774;42.178;26.578;2023-03-01T13:58:26;29.38;;;21.70;;
21233;SDS011;10774;42.178;26.578;2023-03-01T14:00:59;34.85;;;26.80;;
21233;SDS011;10774;42.178;26.578;2023-03-01T14:03:28;31.98;;;23.35;;
21233;SDS011;10774;42.178;26.578;2023-03-01T14:06:00;47.97;;;28.13;;
21233;SDS011;10774;42.178;26.578;2023-03-01T14:08:44;36.92;;;24.70;;
21233;SDS011;10774;42.178;26.578;2023-03-01T14:14:11;39.65;;;26.85;;
21233;SDS011;10774;42.178;26.578;2023-03-01T14:19:35;80.00;;;43.88;;
21233;SDS011;10774;42.178;26.578;2023-03-01T14:27:42;64.97;;;36.00;;
21233;SDS011;10774;42.178;26.578;2023-03-01T14:30:13;39.92;;;26.95;;
21233;SDS011;10774;42.178;26.578;2023-03-01T14:32:57;37.28;;;26.13;;
21233;SDS011;10774;42.178;26.578;2023-03-01T14:35:27;45.50;;;30.60;;
21233;SDS011;10774;42.178;26.578;2023-03-01T14:37:57;30.55;;;22.13;;
21233;SDS011;10774;42.178;26.578;2023-03-01T14:40:41;31.20;;;22.63;;
21233;SDS011;10774;42.178;26.578;2023-03-01T14:43:10;48.97;;;27.58;;
21233;SDS011;10774;42.178;26.578;2023-03-01T14:45:48;41.78;;;29.45;;
21233;SDS011;10774;42.178;26.578;2023-03-01T14:48:15;42.80;;;30.33;;
21233;SDS011;10774;42.178;26.578;2023-03-01T14:50:41;33.00;;;24.42;;
21233;SDS011;10774;42.178;26.578;2023-03-01T14:53:19;22.80;;;17.70;;
21233;SDS011;10774;42.178;26.578;2023-03-01T14:56:33;28.58;;;20.48;;
21233;SDS011;10774;42.178;26.578;2023-03-01T14:58:46;23.25;;;18.48;;
21233;SDS011;10774;42.178;26.578;2023-03-01T15:01:16;26.15;;;18.17;;
21233;SDS011;10774;42.178;26.578;2023-03-01T15:03:47;27.00;;;20.48;;
21233;SDS011;10774;42.178;26.578;2023-03-01T15:06:15;46.05;;;32.33;;
21233;SDS011;10774;42.178;26.578;2023-03-01T15:08:47;58.03;;;34.33;;
21233;SDS011;10774;42.178;26.578;2023-03-01T15:13:54;28.83;;;20.55;;
21233;SDS011;10774;42.178;26.578;2023-03-01T15:18:57;24.77;;;17.88;;
21233;SDS011;10774;42.178;26.578;2023-03-01T15:21:26;31.60;;;20.75;;
21233;SDS011;10774;42.178;26.578;2023-03-01T15:27:04;20.20;;;14.68;;
21233;SDS011;10774;42.178;26.578;2023-03-01T15:29:33;26.63;;;19.55;;
21233;SDS011;10774;42.178;26.578;2023-03-01T15:34:52;23.98;;;15.68;;
21233;SDS011;10774;42.178;26.578;2023-03-01T15:37:36;28.45;;;18.55;;
21233;SDS011;10774;42.178;26.578;2023-03-01T15:40:26;28.75;;;21.83;;
21233;SDS011;10774;42.178;26.578;2023-03-01T15:42:56;26.30;;;17.42;;
21233;SDS011;10774;42.178;26.578;2023-03-01T15:45:24;23.48;;;16.80;;
21233;SDS011;10774;42.178;26.578;2023-03-01T15:47:55;26.60;;;16.55;;
21233;SDS011;10774;42.178;26.578;2023-03-01T15:50:29;31.23;;;19.65;;
21233;SDS011;10774;42.178;26.578;2023-03-01T15:53:00;24.67;;;17.60;;
21233;SDS011;10774;42.178;26.578;2023-03-01T15:55:31;26.23;;;17.63;;
21233;SDS011;10774;42.178;26.578;2023-03-01T16:00:41;34.33;;;25.38;;
21233;SDS011;10774;42.178;26.578;2023-03-01T16:03:06;33.97;;;23.73;;
21233;SDS011;10774;42.178;26.578;2023-03-01T16:05:34;27.88;;;20.23;;
21233;SDS011;10774;42.178;26.578;2023-03-01T16:08:01;28.95;;;19.85;;
21233;SDS011;10774;42.178;26.578;2023-03-01T16:10:27;28.95;;;19.23;;
21233;SDS011;10774;42.178;26.578;2023-03-01T16:12:53;34.15;;;22.10;;
21233;SDS011;10774;42.178;26.578;2023-03-01T16:15:26;38.72;;;22.67;;
21233;SDS011;10774;42.178;26.578;2023-03-01T16:17:56;36.17;;;25.63;;
21233;SDS011;10774;42.178;26.578;2023-03-01T16:20:25;21.75;;;14.85;;
21233;SDS011;10774;42.178;26.578;2023-03-01T16:22:51;18.20;;;13.18;;
21233;SDS011;10774;42.178;26.578;2023-03-01T16:25:18;18.75;;;12.85;;
21233;SDS011;10774;42.178;26.578;2023-03-01T16:27:46;19.77;;;12.60;;
21233;SDS011;10774;42.178;26.578;2023-03-01T16:30:14;25.65;;;16.90;;
21233;SDS011;10774;42.178;26.578;2023-03-01T16:32:41;25.75;;;16.73;;
21233;SDS011;10774;42.178;26.578;2023-03-01T16:35:08;16.42;;;13.30;;
21233;SDS011;10774;42.178;26.578;2023-03-01T16:37:36;17.05;;;13.48;;
21233;SDS011;10774;42.178;26.578;2023-03-01T16:40:02;23.17;;;16.63;;
21233;SDS011;10774;42.178;26.578;2023-03-01T16:42:36;29.02;;;17.35;;
21233;SDS011;10774;42.178;26.578;2023-03-01T16:45:02;24.17;;;16.98;;
21233;SDS011;10774;42.178;26.578;2023-03-01T16:47:29;18.98;;;13.70;;
21233;SDS011;10774;42.178;26.578;2023-03-01T16:49:54;24.77;;;15.80;;
21233;SDS011;10774;42.178;26.578;2023-03-01T16:52:21;18.40;;;11.82;;
21233;SDS011;10774;42.178;26.578;2023-03-01T16:54:47;26.27;;;14.02;;
21233;SDS011;10774;42.178;26.578;2023-03-01T16:57:13;22.73;;;12.38;;